createdAt,value
2022-08-03T00:01:53.398Z,18.01
2022-08-03T00:04:20.217Z,18.01
2022-08-03T00:06:47.034Z,17.99
2022-08-03T00:09:13.952Z,17.98
2022-08-03T00:11:40.803Z,17.97
2022-08-03T00:14:08.264Z,17.94
2022-08-03T00:16:35.218Z,17.92
2022-08-03T00:19:02.733Z,17.93
2022-08-03T00:21:29.622Z,17.92
2022-08-03T00:23:56.788Z,17.90
2022-08-03T00:26:23.954Z,17.87
2022-08-03T00:28:50.985Z,17.82
2022-08-03T00:31:19.732Z,17.80
2022-08-03T00:34:04.961Z,17.75
2022-08-03T00:36:33.038Z,17.72
2022-08-03T00:39:00.125Z,17.71
2022-08-03T00:41:27.053Z,17.70
2022-08-03T00:43:53.927Z,17.67
2022-08-03T00:46:22.442Z,17.64
2022-08-03T00:48:51.038Z,17.58
2022-08-03T00:51:20.018Z,17.54
2022-08-03T00:53:46.908Z,17.53
2022-08-03T00:56:15.477Z,17.50
2022-08-03T00:58:44.765Z,17.49
2022-08-03T01:01:12.672Z,17.44
2022-08-03T01:03:40.295Z,17.43
2022-08-03T01:06:18.737Z,17.40
2022-08-03T01:09:04.588Z,17.48
2022-08-03T01:12:00.076Z,17.42
2022-08-03T01:14:50.737Z,17.35
2022-08-03T01:17:29.308Z,17.31
2022-08-03T01:20:11.812Z,17.31
2022-08-03T01:23:08.967Z,17.28
2022-08-03T01:25:54.363Z,17.17
2022-08-03T01:29:02.949Z,17.26
2022-08-03T01:31:35.717Z,17.18
2022-08-03T01:34:25.408Z,17.13
2022-08-03T01:36:56.834Z,17.14
2022-08-03T01:39:25.402Z,17.12
2022-08-03T01:41:59.965Z,17.12
2022-08-03T01:44:31.147Z,17.10
2022-08-03T01:47:00.291Z,17.06
2022-08-03T01:49:33.853Z,17.07
2022-08-03T01:52:05.401Z,17.05
2022-08-03T01:54:37.855Z,17.09
2022-08-03T01:57:05.320Z,17.05
2022-08-03T01:59:35.852Z,17.08
2022-08-03T02:02:27.740Z,17.06
2022-08-03T02:04:55.834Z,17.10
2022-08-03T02:07:24.948Z,17.12
2022-08-03T02:09:54.277Z,17.17
2022-08-03T02:12:24.053Z,17.24
2022-08-03T02:15:12.664Z,17.27
2022-08-03T02:17:42.808Z,17.31
2022-08-03T02:20:12.279Z,17.33
2022-08-03T02:22:43.913Z,17.34
2022-08-03T02:25:12.761Z,17.32
2022-08-03T02:27:55.762Z,17.46
2022-08-03T02:30:31.065Z,17.47
2022-08-03T02:32:59.478Z,17.48
2022-08-03T02:35:29.191Z,17.50
2022-08-03T02:38:01.154Z,17.55
2022-08-03T02:40:29.957Z,17.58
2022-08-03T02:43:00.638Z,17.62
2022-08-03T02:45:29.743Z,17.65
2022-08-03T02:48:02.834Z,17.67
2022-08-03T02:50:31.049Z,17.69
2022-08-03T02:52:58.925Z,17.72
2022-08-03T02:55:27.578Z,17.78
2022-08-03T02:57:57.106Z,17.85
2022-08-03T03:00:29.751Z,17.88
2022-08-03T03:02:58.969Z,17.93
2022-08-03T03:05:54.866Z,17.96
2022-08-03T03:08:20.507Z,18.02
2022-08-03T03:10:49.002Z,18.06
2022-08-03T03:13:23.180Z,18.11
2022-08-03T03:15:50.944Z,18.22
2022-08-03T03:18:22.239Z,18.28
2022-08-03T03:20:52.886Z,18.37
2022-08-03T03:23:22.370Z,18.42
2022-08-03T03:25:50.197Z,18.47
2022-08-03T03:28:17.522Z,18.53
2022-08-03T03:30:44.617Z,18.58
2022-08-03T03:33:19.868Z,18.67
2022-08-03T03:35:47.443Z,18.72
2022-08-03T03:38:14.489Z,18.79
2022-08-03T03:40:41.879Z,18.87
2022-08-03T03:43:10.964Z,18.97
2022-08-03T03:45:40.749Z,19.03
2022-08-03T03:48:08.733Z,19.15
2022-08-03T03:50:37.444Z,19.23
2022-08-03T03:53:04.863Z,19.29
2022-08-03T03:55:31.740Z,19.35
2022-08-03T03:57:58.701Z,19.42
2022-08-03T04:00:25.551Z,19.48
2022-08-03T04:02:52.439Z,19.54
2022-08-03T04:05:37.801Z,19.58
2022-08-03T04:08:31.079Z,19.65
2022-08-03T04:11:18.321Z,19.81
2022-08-03T04:13:57.090Z,19.89
2022-08-03T04:16:35.314Z,19.99
2022-08-03T04:19:09.424Z,20.13
2022-08-03T04:21:40.689Z,20.20
2022-08-03T04:24:10.649Z,20.29
2022-08-03T04:26:40.221Z,20.33
2022-08-03T04:29:09.465Z,20.37
2022-08-03T04:31:38.531Z,20.44
2022-08-03T04:34:05.578Z,20.50
2022-08-03T04:36:37.410Z,20.56
2022-08-03T04:39:04.096Z,20.69
2022-08-03T04:41:32.160Z,20.64
2022-08-03T04:44:20.974Z,20.66
2022-08-03T04:46:57.186Z,20.70
2022-08-03T04:49:24.757Z,20.74
2022-08-03T04:51:52.727Z,20.80
2022-08-03T04:54:19.541Z,20.87
2022-08-03T04:56:46.387Z,20.93
2022-08-03T04:59:13.641Z,21.04
2022-08-03T05:01:42.248Z,21.14
2022-08-03T05:04:09.527Z,21.23
2022-08-03T05:06:36.679Z,21.29
2022-08-03T05:09:14.638Z,21.28
2022-08-03T05:11:41.545Z,21.30
2022-08-03T05:14:08.440Z,21.33
2022-08-03T05:16:35.349Z,21.35
2022-08-03T05:19:02.231Z,21.36
2022-08-03T05:21:52.166Z,21.43
2022-08-03T05:24:16.209Z,21.56
2022-08-03T05:26:43.078Z,21.67
2022-08-03T05:29:09.872Z,21.73
2022-08-03T05:31:36.700Z,21.82
2022-08-03T05:34:03.690Z,21.86
2022-08-03T05:36:30.611Z,21.88
2022-08-03T05:39:02.221Z,21.90
2022-08-03T05:41:37.188Z,21.95
2022-08-03T05:44:04.968Z,22.01
2022-08-03T05:46:32.177Z,22.07
2022-08-03T05:48:59.137Z,22.15
2022-08-03T05:51:26.107Z,22.24
2022-08-03T05:53:52.928Z,22.28
2022-08-03T05:56:24.287Z,22.41
2022-08-03T05:58:52.229Z,22.45
2022-08-03T06:01:21.925Z,22.52
2022-08-03T06:03:50.281Z,22.57
2022-08-03T06:06:17.694Z,22.67
2022-08-03T06:08:45.454Z,22.77
2022-08-03T06:11:13.186Z,22.86
2022-08-03T06:13:40.633Z,22.94
2022-08-03T06:16:07.461Z,22.99
2022-08-03T06:18:34.815Z,23.05
2022-08-03T06:21:14.019Z,23.16
2022-08-03T06:23:54.810Z,23.26
2022-08-03T06:26:27.889Z,23.40
2022-08-03T06:28:55.574Z,23.51
2022-08-03T06:31:32.316Z,23.59
2022-08-03T06:34:33.639Z,23.68
2022-08-03T06:36:50.057Z,23.77
2022-08-03T06:39:18.551Z,23.86
2022-08-03T06:41:45.693Z,23.95
2022-08-03T06:44:13.410Z,24.08
2022-08-03T06:46:40.645Z,24.18
2022-08-03T06:49:08.226Z,24.25
2022-08-03T06:52:06.042Z,24.33
2022-08-03T06:54:22.437Z,24.43
2022-08-03T06:56:49.330Z,24.48
2022-08-03T07:00:07.822Z,24.50
2022-08-03T07:02:03.202Z,24.55
2022-08-03T07:04:30.032Z,24.62
2022-08-03T07:06:57.122Z,24.71
2022-08-03T07:09:24.041Z,24.84
2022-08-03T07:11:50.881Z,24.91
2022-08-03T07:14:17.675Z,24.99
2022-08-03T07:16:44.533Z,25.05
2022-08-03T07:19:12.318Z,25.09
2022-08-03T07:21:39.149Z,25.20
2022-08-03T07:24:06.730Z,25.27
2022-08-03T07:26:33.575Z,25.34
2022-08-03T07:29:01.555Z,25.40
2022-08-03T07:31:28.408Z,25.42
2022-08-03T07:34:01.485Z,25.47
2022-08-03T07:36:28.404Z,25.51
2022-08-03T07:38:55.407Z,25.60
2022-08-03T07:41:22.325Z,25.70
2022-08-03T07:43:49.141Z,25.77
2022-08-03T07:46:16.178Z,25.87
2022-08-03T07:48:43.021Z,25.90
2022-08-03T07:51:09.898Z,25.95
2022-08-03T07:53:42.882Z,26.01
2022-08-03T07:56:14.358Z,26.09
2022-08-03T07:58:41.227Z,26.18
2022-08-03T08:01:08.230Z,26.23
2022-08-03T08:03:52.324Z,26.25
2022-08-03T08:06:21.271Z,26.29
2022-08-03T08:08:48.590Z,26.36
2022-08-03T08:11:15.449Z,26.45
2022-08-03T08:13:42.351Z,26.50
2022-08-03T08:16:09.165Z,26.54
2022-08-03T08:18:35.973Z,26.55
2022-08-03T08:21:03.534Z,26.46
2022-08-03T08:23:41.922Z,26.53
2022-08-03T08:26:09.989Z,26.56
2022-08-03T08:28:36.797Z,26.56
2022-08-03T08:31:03.764Z,26.61
2022-08-03T08:34:02.779Z,26.72
2022-08-03T08:36:18.306Z,26.89
2022-08-03T08:38:45.486Z,26.95
2022-08-03T08:41:14.447Z,27.03
2022-08-03T08:43:42.498Z,27.18
2022-08-03T08:46:23.477Z,27.28
2022-08-03T08:48:51.249Z,27.37
2022-08-03T08:51:20.742Z,27.04
2022-08-03T08:53:52.621Z,26.93
2022-08-03T08:56:22.911Z,26.74
2022-08-03T08:58:54.121Z,26.80
2022-08-03T09:01:21.960Z,26.84
2022-08-03T09:03:49.054Z,26.91
2022-08-03T09:06:16.530Z,27.10
2022-08-03T09:08:43.529Z,27.07
2022-08-03T09:11:12.212Z,26.98
2022-08-03T09:13:39.967Z,26.95
2022-08-03T09:16:14.733Z,26.97
2022-08-03T09:18:47.513Z,26.90
2022-08-03T09:21:34.895Z,26.97
2022-08-03T09:24:05.614Z,26.97
2022-08-03T09:26:37.447Z,27.04
2022-08-03T09:29:12.856Z,27.13
2022-08-03T09:31:47.198Z,27.17
2022-08-03T09:34:16.048Z,27.03
2022-08-03T09:36:47.909Z,26.87
2022-08-03T09:39:42.034Z,26.94
2022-08-03T09:42:15.436Z,26.93
2022-08-03T09:44:45.039Z,27.02
2022-08-03T09:47:14.396Z,27.04
2022-08-03T09:49:56.562Z,27.21
2022-08-03T09:52:49.763Z,27.50
2022-08-03T09:56:33.467Z,27.78
2022-08-03T09:58:10.446Z,28.24
2022-08-03T10:01:00.848Z,28.56
2022-08-03T10:03:30.517Z,28.60
2022-08-03T10:06:00.041Z,28.53
2022-08-03T10:08:27.407Z,28.28
2022-08-03T10:10:54.749Z,28.17
2022-08-03T10:13:23.348Z,28.10
2022-08-03T10:16:22.081Z,28.18
2022-08-03T10:18:37.692Z,28.44
2022-08-03T10:21:07.969Z,28.93
2022-08-03T10:23:35.959Z,29.64
2022-08-03T10:26:07.121Z,30.38
2022-08-03T10:28:42.779Z,30.23
2022-08-03T10:31:14.058Z,29.65
2022-08-03T10:33:52.891Z,29.36
2022-08-03T10:36:24.631Z,29.08
2022-08-03T10:38:53.712Z,29.50
2022-08-03T10:41:22.557Z,30.69
2022-08-03T10:44:01.466Z,30.96
2022-08-03T10:46:28.854Z,30.54
2022-08-03T10:48:56.873Z,30.93
2022-08-03T10:51:24.460Z,31.48
2022-08-03T10:53:55.661Z,31.73
2022-08-03T10:56:50.685Z,32.11
2022-08-03T10:59:28.061Z,32.57
2022-08-03T11:02:00.382Z,32.98
2022-08-03T11:04:30.027Z,32.79
2022-08-03T11:07:16.462Z,33.47
2022-08-03T11:09:47.690Z,33.50
2022-08-03T11:12:34.766Z,34.17
2022-08-03T11:15:08.607Z,34.18
2022-08-03T11:17:46.252Z,33.91
2022-08-03T11:20:47.445Z,34.56
2022-08-03T11:23:15.746Z,33.92
2022-08-03T11:26:22.673Z,34.12
2022-08-03T11:28:49.666Z,33.71
2022-08-03T11:31:46.839Z,34.74
2022-08-03T11:34:14.587Z,35.02
2022-08-03T11:37:20.071Z,35.79
2022-08-03T11:39:49.080Z,36.34
2022-08-03T11:42:25.602Z,36.79
2022-08-03T11:44:55.177Z,36.77
2022-08-03T11:47:23.229Z,36.96
2022-08-03T11:49:51.877Z,36.29
2022-08-03T11:52:19.612Z,35.48
2022-08-03T11:54:56.420Z,34.55
2022-08-03T11:59:10.767Z,35.20
2022-08-03T12:00:23.337Z,35.66
2022-08-03T12:03:03.070Z,35.17
2022-08-03T12:05:50.998Z,34.58
2022-08-03T12:08:27.821Z,33.88
2022-08-03T12:10:56.406Z,33.08
2022-08-03T12:14:36.756Z,32.62
2022-08-03T12:16:18.197Z,32.17
2022-08-03T12:18:45.623Z,32.61
2022-08-03T12:21:12.944Z,32.57
2022-08-03T12:23:39.877Z,32.15
2022-08-03T12:26:09.110Z,32.50
2022-08-03T12:28:38.329Z,32.48
2022-08-03T12:31:13.371Z,32.78
2022-08-03T12:34:04.110Z,33.08
2022-08-03T12:36:33.458Z,32.44
2022-08-03T12:39:08.168Z,32.02
2022-08-03T12:41:37.803Z,31.81
2022-08-03T12:44:07.141Z,32.04
2022-08-03T12:46:42.690Z,31.89
2022-08-03T12:49:19.214Z,32.22
2022-08-03T12:51:46.143Z,32.61
2022-08-03T12:54:18.551Z,33.14
2022-08-03T12:57:08.581Z,33.05
2022-08-03T12:59:53.278Z,33.03
2022-08-03T13:02:23.590Z,32.78
2022-08-03T13:04:52.590Z,32.87
2022-08-03T13:07:20.502Z,33.45
2022-08-03T13:09:54.191Z,33.96
2022-08-03T13:12:23.846Z,34.35
2022-08-03T13:14:53.483Z,34.29
2022-08-03T13:17:20.822Z,34.41
2022-08-03T13:19:49.607Z,33.95
2022-08-03T13:22:21.780Z,33.71
2022-08-03T13:24:50.813Z,33.25
2022-08-03T13:28:01.403Z,33.22
2022-08-03T13:30:06.450Z,32.98
2022-08-03T13:32:33.943Z,32.72
2022-08-03T13:35:02.774Z,32.33
2022-08-03T13:37:32.530Z,31.91
2022-08-03T13:40:02.994Z,31.75
2022-08-03T13:42:35.346Z,32.00
2022-08-03T13:45:03.874Z,31.95
2022-08-03T13:47:32.228Z,31.68
2022-08-03T13:50:01.566Z,31.70
2022-08-03T13:52:33.005Z,31.89
2022-08-03T13:55:00.485Z,32.07
2022-08-03T13:58:11.409Z,32.00
2022-08-03T14:00:17.202Z,32.55
2022-08-03T14:03:13.715Z,33.03
2022-08-03T14:05:42.252Z,33.13
2022-08-03T14:08:09.557Z,32.91
2022-08-03T14:10:39.280Z,33.05
2022-08-03T14:13:06.930Z,33.09
2022-08-03T14:15:37.902Z,33.81
2022-08-03T14:18:12.828Z,34.46
2022-08-03T14:20:50.067Z,34.70
2022-08-03T14:23:21.166Z,34.20
2022-08-03T14:25:52.425Z,33.82
2022-08-03T14:28:24.705Z,34.03
2022-08-03T14:30:52.878Z,33.65
2022-08-03T14:33:20.585Z,33.71
2022-08-03T14:35:47.974Z,33.66
2022-08-03T14:38:15.552Z,33.54
2022-08-03T14:40:42.545Z,33.08
2022-08-03T14:43:09.576Z,32.53
2022-08-03T14:45:36.476Z,31.98
2022-08-03T14:50:33.159Z,31.50
2022-08-03T14:50:52.688Z,30.81
2022-08-03T14:53:20.093Z,30.28
2022-08-03T14:55:50.918Z,29.93
2022-08-03T14:58:21.495Z,29.69
2022-08-03T15:00:49.911Z,29.51
2022-08-03T15:03:20.261Z,29.27
2022-08-03T15:05:47.475Z,29.03
2022-08-03T15:08:14.353Z,28.82
2022-08-03T15:10:44.039Z,28.75
2022-08-03T15:13:13.471Z,28.75
2022-08-03T15:15:41.297Z,28.78
2022-08-03T15:18:08.736Z,28.65
2022-08-03T15:20:51.059Z,28.52
2022-08-03T15:23:18.653Z,28.43
2022-08-03T15:26:07.080Z,28.40
2022-08-03T15:28:33.129Z,28.34
2022-08-03T15:31:00.729Z,28.31
2022-08-03T15:33:28.223Z,28.27
2022-08-03T15:35:55.202Z,28.17
2022-08-03T15:38:25.716Z,28.07
2022-08-03T15:40:54.677Z,28.07
2022-08-03T15:43:22.814Z,28.08
2022-08-03T15:45:54.656Z,28.11
2022-08-03T15:48:36.536Z,28.13
2022-08-03T15:51:07.080Z,28.12
2022-08-03T15:53:34.491Z,28.00
2022-08-03T15:56:08.025Z,27.94
2022-08-03T15:59:04.736Z,27.87
2022-08-03T16:01:26.348Z,27.78
2022-08-03T16:03:53.269Z,27.72
2022-08-03T16:06:29.403Z,27.64
2022-08-03T16:09:01.433Z,27.56
2022-08-03T16:11:28.285Z,27.53
2022-08-03T16:14:12.964Z,27.45
2022-08-03T16:16:41.991Z,27.35
2022-08-03T16:19:08.844Z,27.22
2022-08-03T16:21:40.293Z,27.15
2022-08-03T16:24:17.251Z,27.05
2022-08-03T16:26:46.928Z,26.92
2022-08-03T16:29:23.149Z,26.78
2022-08-03T16:31:51.546Z,26.66
2022-08-03T16:34:19.042Z,26.56
2022-08-03T16:36:45.948Z,26.51
2022-08-03T16:39:12.975Z,26.47
2022-08-03T16:41:54.291Z,26.44
2022-08-03T16:44:27.905Z,26.37
2022-08-03T16:46:54.737Z,26.31
2022-08-03T16:49:55.507Z,26.27
2022-08-03T16:52:08.387Z,26.22
2022-08-03T16:54:35.300Z,26.15
2022-08-03T16:57:02.286Z,26.07
2022-08-03T16:59:35.964Z,25.98
2022-08-03T17:02:10.034Z,25.92
2022-08-03T17:04:40.116Z,25.82
2022-08-03T17:07:19.322Z,25.76
2022-08-03T17:09:47.105Z,25.67
2022-08-03T17:12:14.554Z,25.55
2022-08-03T17:14:42.672Z,25.46
2022-08-03T17:17:47.498Z,25.50
2022-08-03T17:20:20.064Z,25.29
2022-08-03T17:23:03.142Z,25.25
2022-08-03T17:26:01.643Z,25.09
2022-08-03T17:28:48.358Z,24.97
2022-08-03T17:31:23.581Z,24.86
2022-08-03T17:33:57.954Z,24.71
2022-08-03T17:36:47.680Z,24.60
2022-08-03T17:39:30.905Z,24.58
2022-08-03T17:42:30.959Z,24.48
2022-08-03T17:44:57.308Z,24.35
2022-08-03T17:47:40.961Z,24.26
2022-08-03T17:50:24.148Z,24.18
2022-08-03T17:53:01.361Z,24.11
2022-08-03T17:55:56.100Z,24.09
2022-08-03T17:58:55.044Z,24.09
2022-08-03T18:02:06.150Z,23.95
2022-08-03T18:04:42.813Z,23.84
2022-08-03T18:07:12.716Z,23.77
2022-08-03T18:10:04.079Z,23.81
2022-08-03T18:12:51.890Z,23.95
2022-08-03T18:15:46.565Z,24.04
2022-08-03T18:18:32.282Z,24.11
2022-08-03T18:21:04.591Z,24.21
2022-08-03T18:23:36.909Z,24.25
2022-08-03T18:26:07.867Z,24.30
2022-08-03T18:28:40.448Z,24.36
2022-08-03T18:31:11.628Z,24.39
2022-08-03T18:34:16.449Z,24.32
2022-08-03T18:36:30.343Z,24.34
2022-08-03T18:39:01.631Z,24.40
2022-08-03T18:41:33.484Z,24.48
2022-08-03T18:44:08.694Z,24.44
2022-08-03T18:49:53.961Z,24.41
2022-08-03T18:52:20.956Z,24.40
2022-08-03T18:55:09.521Z,24.39
2022-08-03T18:57:59.759Z,24.36
2022-08-03T19:00:53.865Z,24.25
2022-08-03T19:03:24.892Z,24.20
2022-08-03T19:06:14.582Z,24.09
2022-08-03T19:08:53.013Z,24.08
2022-08-03T19:12:10.973Z,24.13
2022-08-03T19:14:29.698Z,24.05
2022-08-03T19:17:05.845Z,24.07
2022-08-03T19:19:44.506Z,23.99
2022-08-03T19:22:16.156Z,23.95
2022-08-03T19:24:49.155Z,23.91
2022-08-03T19:27:16.272Z,23.87
2022-08-03T19:29:59.511Z,23.88
2022-08-03T19:32:32.573Z,23.82
2022-08-03T19:35:01.325Z,23.72
2022-08-03T19:37:39.911Z,23.64
2022-08-03T19:40:10.986Z,23.61
2022-08-03T19:42:44.681Z,23.57
2022-08-03T19:45:17.035Z,23.55
2022-08-03T19:47:56.664Z,23.54
2022-08-03T19:50:25.208Z,23.47
2022-08-03T19:52:53.150Z,23.44
2022-08-03T19:55:20.437Z,23.42
2022-08-03T19:57:49.746Z,23.42
2022-08-03T20:00:20.025Z,23.39
2022-08-03T20:02:53.997Z,23.35
2022-08-03T20:05:20.934Z,23.30
2022-08-03T20:07:49.965Z,23.28
2022-08-03T20:10:18.133Z,23.22
2022-08-03T20:12:46.882Z,23.22
2022-08-03T20:15:14.149Z,23.20
2022-08-03T20:17:56.448Z,23.19
2022-08-03T20:20:34.390Z,23.20
2022-08-03T20:23:07.076Z,23.14
2022-08-03T20:25:48.879Z,23.09
2022-08-03T20:28:32.248Z,23.03
2022-08-03T20:31:01.758Z,22.99
2022-08-03T20:33:46.395Z,22.97
2022-08-03T20:36:17.990Z,22.94
2022-08-03T20:38:47.398Z,22.92
2022-08-03T20:41:18.747Z,22.91
2022-08-03T20:43:46.552Z,22.87
2022-08-03T20:46:32.639Z,22.83
2022-08-03T20:49:06.206Z,22.76
2022-08-03T20:51:50.317Z,22.73
2022-08-03T20:54:29.601Z,22.62
2022-08-03T20:57:04.434Z,22.53
2022-08-03T20:59:50.534Z,22.48
2022-08-03T21:02:29.704Z,22.47
2022-08-03T21:05:03.039Z,22.45
2022-08-03T21:08:03.701Z,22.44
2022-08-03T21:10:28.640Z,22.51
2022-08-03T21:13:00.462Z,24.45
2022-08-03T21:13:22.704Z,22.44
2022-08-03T21:16:12.360Z,22.43
2022-08-03T21:18:50.960Z,22.44
2022-08-03T21:21:20.842Z,22.37
2022-08-03T21:23:52.980Z,22.39
2022-08-03T21:26:25.536Z,22.38
2022-08-03T21:28:55.546Z,22.35
2022-08-03T21:31:25.638Z,22.34
2022-08-03T21:34:05.270Z,22.39
2022-08-03T21:36:36.742Z,22.34
2022-08-03T21:39:07.035Z,22.24
2022-08-03T21:41:34.432Z,22.15
2022-08-03T21:44:02.068Z,22.03
2022-08-03T21:46:35.639Z,21.95
2022-08-03T21:50:04.303Z,21.80
2022-08-03T21:51:54.425Z,21.65
2022-08-03T21:54:21.682Z,21.46
2022-08-03T21:56:51.358Z,21.33
2022-08-03T21:59:20.109Z,21.14
2022-08-03T22:01:49.130Z,20.96
2022-08-03T22:04:53.880Z,20.83
2022-08-03T22:07:08.496Z,20.67
2022-08-03T22:09:36.241Z,20.56
2022-08-03T22:12:03.990Z,20.48
2022-08-03T22:14:33.207Z,20.43
2022-08-03T22:17:00.789Z,20.34
2022-08-03T22:19:33.020Z,20.25
2022-08-03T22:22:01.670Z,20.18
2022-08-03T22:24:32.719Z,20.14
2022-08-03T22:27:20.523Z,20.07
2022-08-03T22:29:49.235Z,20.01
2022-08-03T22:32:16.258Z,19.94
2022-08-03T22:34:45.763Z,19.90
2022-08-03T22:37:15.611Z,19.89
2022-08-03T22:39:43.853Z,19.84
2022-08-03T22:42:11.420Z,19.81
2022-08-03T22:44:38.352Z,19.76
2022-08-03T22:47:06.256Z,19.88
2022-08-03T22:49:35.411Z,20.06
2022-08-03T22:52:02.546Z,20.25
2022-08-03T22:54:31.749Z,20.45
2022-08-03T22:56:58.878Z,20.30
2022-08-03T22:59:40.729Z,20.14
2022-08-03T23:02:21.256Z,20.11
2022-08-03T23:04:55.144Z,19.98
2022-08-03T23:07:30.344Z,19.90
2022-08-03T23:09:59.686Z,19.75
2022-08-03T23:12:29.628Z,19.70
2022-08-03T23:15:06.550Z,19.65
2022-08-03T23:17:34.319Z,19.55
2022-08-03T23:20:26.383Z,19.52
2022-08-03T23:22:54.633Z,19.46
2022-08-03T23:25:22.103Z,19.41
2022-08-03T23:28:05.052Z,19.39
2022-08-03T23:30:37.254Z,19.40
2022-08-03T23:33:04.566Z,19.36
2022-08-03T23:36:28.779Z,19.33
2022-08-03T23:38:37.594Z,19.26
2022-08-03T23:41:05.058Z,19.22
2022-08-03T23:43:52.374Z,19.17
2022-08-03T23:46:22.134Z,19.12
2022-08-03T23:48:49.695Z,19.09
2022-08-03T23:51:27.687Z,19.12
2022-08-03T23:54:03.413Z,19.07
2022-08-03T23:56:54.396Z,19.08
2022-08-03T23:59:27.358Z,18.99
